sensor_id;sensor_type;location;lat;lon;timestamp;temperature;humidity
37378;DHT22;23248;48.120;14.854;2022-08-16T00:02:11;18.70;99.90
37378;DHT22;23248;48.120;14.854;2022-08-16T00:04:36;18.70;99.90
37378;DHT22;23248;48.120;14.854;2022-08-16T00:07:02;18.70;99.90
37378;DHT22;23248;48.120;14.854;2022-08-16T00:09:28;18.70;99.90
37378;DHT22;23248;48.120;14.854;2022-08-16T00:11:53;18.70;99.90
37378;DHT22;23248;48.120;14.854;2022-08-16T00:14:20;18.70;99.90
37378;DHT22;23248;48.120;14.854;2022-08-16T00:16:47;18.60;99.90
37378;DHT22;23248;48.120;14.854;2022-08-16T00:19:13;18.60;99.90
37378;DHT22;23248;48.120;14.854;2022-08-16T00:21:39;18.60;99.90
37378;DHT22;23248;48.120;14.854;2022-08-16T00:24:04;18.60;99.90
37378;DHT22;23248;48.120;14.854;2022-08-16T00:26:30;18.60;99.90
37378;DHT22;23248;48.120;14.854;2022-08-16T00:28:56;18.60;99.90
37378;DHT22;23248;48.120;14.854;2022-08-16T00:31:21;18.60;99.90
37378;DHT22;23248;48.120;14.854;2022-08-16T00:33:47;18.60;99.90
37378;DHT22;23248;48.120;14.854;2022-08-16T00:36:12;18.50;99.90
37378;DHT22;23248;48.120;14.854;2022-08-16T00:38:38;18.50;99.90
37378;DHT22;23248;48.120;14.854;2022-08-16T00:41:04;18.50;99.90
37378;DHT22;23248;48.120;14.854;2022-08-16T00:43:32;18.50;99.90
37378;DHT22;23248;48.120;14.854;2022-08-16T00:48:31;18.40;99.90
37378;DHT22;23248;48.120;14.854;2022-08-16T00:50:58;18.40;99.90
37378;DHT22;23248;48.120;14.854;2022-08-16T00:53:24;18.40;99.90
37378;DHT22;23248;48.120;14.854;2022-08-16T00:55:51;18.40;99.90
37378;DHT22;23248;48.120;14.854;2022-08-16T00:58:18;18.50;99.90
37378;DHT22;23248;48.120;14.854;2022-08-16T01:00:45;18.40;99.90
37378;DHT22;23248;48.120;14.854;2022-08-16T01:03:12;18.50;99.90
37378;DHT22;23248;48.120;14.854;2022-08-16T01:05:39;18.40;99.90
37378;DHT22;23248;48.120;14.854;2022-08-16T01:08:05;18.50;99.90
37378;DHT22;23248;48.120;14.854;2022-08-16T01:10:32;18.50;99.90
37378;DHT22;23248;48.120;14.854;2022-08-16T01:12:59;18.40;99.90
37378;DHT22;23248;48.120;14.854;2022-08-16T01:15:25;18.40;99.90
37378;DHT22;23248;48.120;14.854;2022-08-16T01:17:52;18.30;99.90
37378;DHT22;23248;48.120;14.854;2022-08-16T01:20:18;18.40;99.90
37378;DHT22;23248;48.120;14.854;2022-08-16T01:23:10;18.30;99.90
37378;DHT22;23248;48.120;14.854;2022-08-16T01:25:38;18.30;99.90
37378;DHT22;23248;48.120;14.854;2022-08-16T01:28:07;18.30;99.90
37378;DHT22;23248;48.120;14.854;2022-08-16T01:30:35;18.30;99.90
37378;DHT22;23248;48.120;14.854;2022-08-16T01:33:03;18.30;99.90
37378;DHT22;23248;48.120;14.854;2022-08-16T01:35:31;18.20;99.90
37378;DHT22;23248;48.120;14.854;2022-08-16T01:38:12;18.20;99.90
37378;DHT22;23248;48.120;14.854;2022-08-16T01:40:38;18.20;99.90
37378;DHT22;23248;48.120;14.854;2022-08-16T01:43:04;18.20;99.90
37378;DHT22;23248;48.120;14.854;2022-08-16T01:45:29;18.20;99.90
37378;DHT22;23248;48.120;14.854;2022-08-16T01:47:55;18.20;99.90
37378;DHT22;23248;48.120;14.854;2022-08-16T01:50:21;18.10;99.90
37378;DHT22;23248;48.120;14.854;2022-08-16T01:52:47;18.10;99.90
37378;DHT22;23248;48.120;14.854;2022-08-16T01:55:15;18.10;99.90
37378;DHT22;23248;48.120;14.854;2022-08-16T01:57:40;18.10;99.90
37378;DHT22;23248;48.120;14.854;2022-08-16T02:00:07;18.10;99.90
37378;DHT22;23248;48.120;14.854;2022-08-16T02:02:34;18.10;99.90
37378;DHT22;23248;48.120;14.854;2022-08-16T02:05:00;18.00;99.90
37378;DHT22;23248;48.120;14.854;2022-08-16T02:07:25;18.00;99.90
37378;DHT22;23248;48.120;14.854;2022-08-16T02:09:51;18.10;99.90
37378;DHT22;23248;48.120;14.854;2022-08-16T02:12:18;18.10;99.90
37378;DHT22;23248;48.120;14.854;2022-08-16T02:14:44;18.10;99.90
37378;DHT22;23248;48.120;14.854;2022-08-16T02:17:10;18.00;99.90
37378;DHT22;23248;48.120;14.854;2022-08-16T02:19:37;18.10;99.90
37378;DHT22;23248;48.120;14.854;2022-08-16T02:22:03;18.00;99.90
37378;DHT22;23248;48.120;14.854;2022-08-16T02:24:28;17.90;99.90
37378;DHT22;23248;48.120;14.854;2022-08-16T02:26:54;17.90;99.90
37378;DHT22;23248;48.120;14.854;2022-08-16T02:29:20;18.00;99.90
37378;DHT22;23248;48.120;14.854;2022-08-16T02:31:47;18.00;99.90
37378;DHT22;23248;48.120;14.854;2022-08-16T02:34:13;18.10;99.90
37378;DHT22;23248;48.120;14.854;2022-08-16T02:36:39;18.10;99.90
37378;DHT22;23248;48.120;14.854;2022-08-16T02:39:05;18.10;99.90
37378;DHT22;23248;48.120;14.854;2022-08-16T02:41:31;18.10;99.90
37378;DHT22;23248;48.120;14.854;2022-08-16T02:43:57;18.00;99.90
37378;DHT22;23248;48.120;14.854;2022-08-16T02:46:24;17.90;99.90
37378;DHT22;23248;48.120;14.854;2022-08-16T02:48:50;17.90;99.90
37378;DHT22;23248;48.120;14.854;2022-08-16T02:51:16;17.80;99.90
37378;DHT22;23248;48.120;14.854;2022-08-16T02:53:42;17.80;99.90
37378;DHT22;23248;48.120;14.854;2022-08-16T02:56:08;17.70;99.90
37378;DHT22;23248;48.120;14.854;2022-08-16T02:58:35;17.80;99.90
37378;DHT22;23248;48.120;14.854;2022-08-16T03:01:01;17.80;99.90
37378;DHT22;23248;48.120;14.854;2022-08-16T03:03:26;17.90;99.90
37378;DHT22;23248;48.120;14.854;2022-08-16T03:05:53;18.00;99.90
37378;DHT22;23248;48.120;14.854;2022-08-16T03:08:19;18.00;99.90
37378;DHT22;23248;48.120;14.854;2022-08-16T03:10:45;17.90;99.90
37378;DHT22;23248;48.120;14.854;2022-08-16T03:13:10;17.80;99.90
37378;DHT22;23248;48.120;14.854;2022-08-16T03:15:36;17.80;99.90
37378;DHT22;23248;48.120;14.854;2022-08-16T03:18:02;17.70;99.90
37378;DHT22;23248;48.120;14.854;2022-08-16T03:20:28;17.70;99.90
37378;DHT22;23248;48.120;14.854;2022-08-16T03:22:53;17.70;99.90
37378;DHT22;23248;48.120;14.854;2022-08-16T03:25:19;17.70;99.90
37378;DHT22;23248;48.120;14.854;2022-08-16T03:27:45;17.80;99.90
37378;DHT22;23248;48.120;14.854;2022-08-16T03:30:12;17.80;99.90
37378;DHT22;23248;48.120;14.854;2022-08-16T03:32:38;17.90;99.90
37378;DHT22;23248;48.120;14.854;2022-08-16T03:35:05;17.90;99.90
37378;DHT22;23248;48.120;14.854;2022-08-16T03:37:30;18.00;99.90
37378;DHT22;23248;48.120;14.854;2022-08-16T03:39:56;18.00;99.90
37378;DHT22;23248;48.120;14.854;2022-08-16T03:42:22;17.90;99.90
37378;DHT22;23248;48.120;14.854;2022-08-16T03:44:47;17.90;99.90
37378;DHT22;23248;48.120;14.854;2022-08-16T03:47:13;17.90;99.90
37378;DHT22;23248;48.120;14.854;2022-08-16T03:49:39;17.90;99.90
37378;DHT22;23248;48.120;14.854;2022-08-16T03:52:06;17.80;99.90
37378;DHT22;23248;48.120;14.854;2022-08-16T03:54:31;17.70;99.90
37378;DHT22;23248;48.120;14.854;2022-08-16T03:56:57;17.80;99.90
37378;DHT22;23248;48.120;14.854;2022-08-16T03:59:23;17.80;99.90
37378;DHT22;23248;48.120;14.854;2022-08-16T04:01:48;17.80;99.90
37378;DHT22;23248;48.120;14.854;2022-08-16T04:04:14;17.90;99.90
37378;DHT22;23248;48.120;14.854;2022-08-16T04:06:39;18.00;99.90
37378;DHT22;23248;48.120;14.854;2022-08-16T04:09:05;17.90;99.90
37378;DHT22;23248;48.120;14.854;2022-08-16T04:11:31;18.00;99.90
37378;DHT22;23248;48.120;14.854;2022-08-16T04:13:56;18.00;99.90
37378;DHT22;23248;48.120;14.854;2022-08-16T04:16:22;18.00;99.90
37378;DHT22;23248;48.120;14.854;2022-08-16T04:18:47;18.00;99.90
37378;DHT22;23248;48.120;14.854;2022-08-16T04:21:13;18.10;99.90
37378;DHT22;23248;48.120;14.854;2022-08-16T04:23:39;18.10;99.90
37378;DHT22;23248;48.120;14.854;2022-08-16T04:26:05;18.10;99.90
37378;DHT22;23248;48.120;14.854;2022-08-16T04:28:31;18.10;99.90
37378;DHT22;23248;48.120;14.854;2022-08-16T04:30:57;18.10;99.90
37378;DHT22;23248;48.120;14.854;2022-08-16T04:33:23;18.20;99.90
37378;DHT22;23248;48.120;14.854;2022-08-16T04:35:50;18.20;99.90
37378;DHT22;23248;48.120;14.854;2022-08-16T04:38:15;18.30;99.90
37378;DHT22;23248;48.120;14.854;2022-08-16T04:40:41;18.30;99.90
37378;DHT22;23248;48.120;14.854;2022-08-16T04:43:06;18.30;99.90
37378;DHT22;23248;48.120;14.854;2022-08-16T04:45:32;18.40;99.90
37378;DHT22;23248;48.120;14.854;2022-08-16T04:47:58;18.40;99.90
37378;DHT22;23248;48.120;14.854;2022-08-16T04:50:24;18.40;99.90
37378;DHT22;23248;48.120;14.854;2022-08-16T04:52:52;18.40;99.90
37378;DHT22;23248;48.120;14.854;2022-08-16T04:55:22;18.30;99.90
37378;DHT22;23248;48.120;14.854;2022-08-16T04:57:49;18.30;99.90
37378;DHT22;23248;48.120;14.854;2022-08-16T05:00:16;18.20;99.90
37378;DHT22;23248;48.120;14.854;2022-08-16T05:02:42;18.20;99.90
37378;DHT22;23248;48.120;14.854;2022-08-16T05:05:08;18.20;99.90
37378;DHT22;23248;48.120;14.854;2022-08-16T05:07:34;18.10;99.90
37378;DHT22;23248;48.120;14.854;2022-08-16T05:10:00;18.10;99.90
37378;DHT22;23248;48.120;14.854;2022-08-16T05:12:25;18.10;99.90
37378;DHT22;23248;48.120;14.854;2022-08-16T05:14:51;18.20;99.90
37378;DHT22;23248;48.120;14.854;2022-08-16T05:17:16;18.20;99.90
37378;DHT22;23248;48.120;14.854;2022-08-16T05:19:42;18.20;99.90
37378;DHT22;23248;48.120;14.854;2022-08-16T05:22:07;18.30;99.90
37378;DHT22;23248;48.120;14.854;2022-08-16T05:24:33;18.40;99.90
37378;DHT22;23248;48.120;14.854;2022-08-16T05:26:58;18.50;99.90
37378;DHT22;23248;48.120;14.854;2022-08-16T05:29:24;18.50;99.90
37378;DHT22;23248;48.120;14.854;2022-08-16T05:31:50;18.60;99.90
37378;DHT22;23248;48.120;14.854;2022-08-16T05:34:15;18.70;99.90
37378;DHT22;23248;48.120;14.854;2022-08-16T05:36:46;18.90;99.90
37378;DHT22;23248;48.120;14.854;2022-08-16T05:39:13;19.00;99.90
37378;DHT22;23248;48.120;14.854;2022-08-16T05:41:39;19.10;99.90
37378;DHT22;23248;48.120;14.854;2022-08-16T05:44:05;19.10;99.90
37378;DHT22;23248;48.120;14.854;2022-08-16T05:46:31;19.20;99.90
37378;DHT22;23248;48.120;14.854;2022-08-16T05:48:57;19.40;99.90
37378;DHT22;23248;48.120;14.854;2022-08-16T05:51:23;19.50;99.90
37378;DHT22;23248;48.120;14.854;2022-08-16T05:53:48;19.60;99.90
37378;DHT22;23248;48.120;14.854;2022-08-16T05:56:14;19.80;99.90
37378;DHT22;23248;48.120;14.854;2022-08-16T05:58:40;20.00;99.90
37378;DHT22;23248;48.120;14.854;2022-08-16T06:01:05;20.10;99.90
37378;DHT22;23248;48.120;14.854;2022-08-16T06:03:31;20.20;99.90
37378;DHT22;23248;48.120;14.854;2022-08-16T06:05:57;20.40;99.90
37378;DHT22;23248;48.120;14.854;2022-08-16T06:08:23;20.50;99.90
37378;DHT22;23248;48.120;14.854;2022-08-16T06:10:49;20.60;99.90
37378;DHT22;23248;48.120;14.854;2022-08-16T06:13:14;20.70;99.90
37378;DHT22;23248;48.120;14.854;2022-08-16T06:15:40;20.80;99.90
37378;DHT22;23248;48.120;14.854;2022-08-16T06:18:05;20.70;99.90
37378;DHT22;23248;48.120;14.854;2022-08-16T06:20:31;20.80;99.90
37378;DHT22;23248;48.120;14.854;2022-08-16T06:22:56;20.70;99.90
37378;DHT22;23248;48.120;14.854;2022-08-16T06:25:23;20.70;99.90
37378;DHT22;23248;48.120;14.854;2022-08-16T06:27:50;20.70;99.90
37378;DHT22;23248;48.120;14.854;2022-08-16T06:30:16;20.70;99.90
37378;DHT22;23248;48.120;14.854;2022-08-16T06:32:41;20.70;99.90
37378;DHT22;23248;48.120;14.854;2022-08-16T06:35:07;20.70;99.90
37378;DHT22;23248;48.120;14.854;2022-08-16T06:37:33;20.70;99.90
37378;DHT22;23248;48.120;14.854;2022-08-16T06:39:59;20.70;99.90
37378;DHT22;23248;48.120;14.854;2022-08-16T06:42:24;20.70;99.90
37378;DHT22;23248;48.120;14.854;2022-08-16T06:44:50;20.70;99.90
37378;DHT22;23248;48.120;14.854;2022-08-16T06:47:15;20.70;99.90
37378;DHT22;23248;48.120;14.854;2022-08-16T06:49:41;20.90;99.90
37378;DHT22;23248;48.120;14.854;2022-08-16T06:52:06;21.00;99.90
37378;DHT22;23248;48.120;14.854;2022-08-16T06:54:33;21.30;99.90
37378;DHT22;23248;48.120;14.854;2022-08-16T06:56:59;21.60;99.90
37378;DHT22;23248;48.120;14.854;2022-08-16T06:59:25;21.90;99.90
37378;DHT22;23248;48.120;14.854;2022-08-16T07:01:50;22.10;99.90
37378;DHT22;23248;48.120;14.854;2022-08-16T07:04:16;22.30;99.90
37378;DHT22;23248;48.120;14.854;2022-08-16T07:06:42;22.40;99.90
37378;DHT22;23248;48.120;14.854;2022-08-16T07:09:08;22.40;99.90
37378;DHT22;23248;48.120;14.854;2022-08-16T07:11:35;22.60;99.90
37378;DHT22;23248;48.120;14.854;2022-08-16T07:14:01;22.70;99.90
37378;DHT22;23248;48.120;14.854;2022-08-16T07:16:26;22.70;99.90
37378;DHT22;23248;48.120;14.854;2022-08-16T07:18:52;22.70;99.90
37378;DHT22;23248;48.120;14.854;2022-08-16T07:21:17;22.80;99.90
37378;DHT22;23248;48.120;14.854;2022-08-16T07:23:43;22.90;99.90
37378;DHT22;23248;48.120;14.854;2022-08-16T07:26:18;23.00;99.90
37378;DHT22;23248;48.120;14.854;2022-08-16T07:28:44;23.10;99.90
37378;DHT22;23248;48.120;14.854;2022-08-16T07:31:09;23.20;99.90
37378;DHT22;23248;48.120;14.854;2022-08-16T07:33:35;23.20;99.90
37378;DHT22;23248;48.120;14.854;2022-08-16T07:36:02;23.20;99.90
37378;DHT22;23248;48.120;14.854;2022-08-16T07:38:28;23.30;99.90
37378;DHT22;23248;48.120;14.854;2022-08-16T07:40:54;23.30;99.90
37378;DHT22;23248;48.120;14.854;2022-08-16T07:43:20;23.30;99.90
37378;DHT22;23248;48.120;14.854;2022-08-16T07:45:46;23.40;99.90
37378;DHT22;23248;48.120;14.854;2022-08-16T07:48:11;23.50;99.90
37378;DHT22;23248;48.120;14.854;2022-08-16T07:50:37;23.40;99.90
37378;DHT22;23248;48.120;14.854;2022-08-16T07:53:03;23.40;99.90
37378;DHT22;23248;48.120;14.854;2022-08-16T07:55:28;23.50;99.90
37378;DHT22;23248;48.120;14.854;2022-08-16T07:57:54;23.60;99.90
37378;DHT22;23248;48.120;14.854;2022-08-16T08:00:20;23.70;99.90
37378;DHT22;23248;48.120;14.854;2022-08-16T08:02:46;23.70;99.90
37378;DHT22;23248;48.120;14.854;2022-08-16T08:05:12;23.60;99.90
37378;DHT22;23248;48.120;14.854;2022-08-16T08:07:37;23.60;99.90
37378;DHT22;23248;48.120;14.854;2022-08-16T08:10:03;23.70;99.90
37378;DHT22;23248;48.120;14.854;2022-08-16T08:12:30;23.80;99.90
37378;DHT22;23248;48.120;14.854;2022-08-16T08:14:55;24.00;99.90
37378;DHT22;23248;48.120;14.854;2022-08-16T08:17:21;24.30;99.90
37378;DHT22;23248;48.120;14.854;2022-08-16T08:19:47;24.40;99.90
37378;DHT22;23248;48.120;14.854;2022-08-16T08:22:13;24.50;99.90
37378;DHT22;23248;48.120;14.854;2022-08-16T08:24:38;24.60;99.90
37378;DHT22;23248;48.120;14.854;2022-08-16T08:27:04;24.70;99.90
37378;DHT22;23248;48.120;14.854;2022-08-16T08:29:33;24.70;99.90
37378;DHT22;23248;48.120;14.854;2022-08-16T08:31:59;24.60;99.90
37378;DHT22;23248;48.120;14.854;2022-08-16T08:34:25;24.60;99.90
37378;DHT22;23248;48.120;14.854;2022-08-16T08:36:51;24.60;99.90
37378;DHT22;23248;48.120;14.854;2022-08-16T08:39:17;24.50;99.90
37378;DHT22;23248;48.120;14.854;2022-08-16T08:41:43;24.50;99.90
37378;DHT22;23248;48.120;14.854;2022-08-16T08:44:09;24.70;99.90
37378;DHT22;23248;48.120;14.854;2022-08-16T08:46:35;24.80;99.90
37378;DHT22;23248;48.120;14.854;2022-08-16T08:49:00;24.90;99.90
37378;DHT22;23248;48.120;14.854;2022-08-16T08:51:26;25.00;99.90
37378;DHT22;23248;48.120;14.854;2022-08-16T08:53:52;25.20;99.90
37378;DHT22;23248;48.120;14.854;2022-08-16T08:56:18;25.30;99.90
37378;DHT22;23248;48.120;14.854;2022-08-16T08:58:43;25.40;99.90
37378;DHT22;23248;48.120;14.854;2022-08-16T09:01:09;25.30;99.90
37378;DHT22;23248;48.120;14.854;2022-08-16T09:03:35;25.10;99.90
37378;DHT22;23248;48.120;14.854;2022-08-16T09:06:01;25.10;99.90
37378;DHT22;23248;48.120;14.854;2022-08-16T09:08:28;25.00;99.90
37378;DHT22;23248;48.120;14.854;2022-08-16T09:10:56;24.90;99.90
37378;DHT22;23248;48.120;14.854;2022-08-16T09:13:22;25.00;99.90
37378;DHT22;23248;48.120;14.854;2022-08-16T09:15:49;25.10;99.90
37378;DHT22;23248;48.120;14.854;2022-08-16T09:18:15;25.40;99.90
37378;DHT22;23248;48.120;14.854;2022-08-16T09:20:42;25.50;99.90
37378;DHT22;23248;48.120;14.854;2022-08-16T09:23:08;25.50;99.90
37378;DHT22;23248;48.120;14.854;2022-08-16T09:25:35;25.40;99.90
37378;DHT22;23248;48.120;14.854;2022-08-16T09:28:01;25.40;99.90
37378;DHT22;23248;48.120;14.854;2022-08-16T09:30:27;25.50;99.90
37378;DHT22;23248;48.120;14.854;2022-08-16T09:32:52;25.70;99.90
37378;DHT22;23248;48.120;14.854;2022-08-16T09:35:22;25.60;98.90
37378;DHT22;23248;48.120;14.854;2022-08-16T09:37:47;25.50;99.50
37378;DHT22;23248;48.120;14.854;2022-08-16T09:40:13;25.50;99.50
37378;DHT22;23248;48.120;14.854;2022-08-16T09:42:39;25.70;99.90
37378;DHT22;23248;48.120;14.854;2022-08-16T09:45:05;25.80;99.90
37378;DHT22;23248;48.120;14.854;2022-08-16T09:47:35;25.70;98.10
37378;DHT22;23248;48.120;14.854;2022-08-16T09:50:05;25.80;99.90
37378;DHT22;23248;48.120;14.854;2022-08-16T09:52:31;26.00;99.80
37378;DHT22;23248;48.120;14.854;2022-08-16T09:54:57;26.10;99.90
37378;DHT22;23248;48.120;14.854;2022-08-16T09:57:22;26.10;96.90
37378;DHT22;23248;48.120;14.854;2022-08-16T09:59:48;26.20;96.90
37378;DHT22;23248;48.120;14.854;2022-08-16T10:02:13;26.40;97.00
37378;DHT22;23248;48.120;14.854;2022-08-16T10:04:40;26.50;96.60
37378;DHT22;23248;48.120;14.854;2022-08-16T10:07:06;26.50;96.60
37378;DHT22;23248;48.120;14.854;2022-08-16T10:09:31;26.40;97.80
37378;DHT22;23248;48.120;14.854;2022-08-16T10:11:57;26.40;96.90
37378;DHT22;23248;48.120;14.854;2022-08-16T10:14:41;26.50;97.40
37378;DHT22;23248;48.120;14.854;2022-08-16T10:17:07;26.50;96.90
37378;DHT22;23248;48.120;14.854;2022-08-16T10:19:33;26.70;96.40
37378;DHT22;23248;48.120;14.854;2022-08-16T10:21:59;26.80;95.60
37378;DHT22;23248;48.120;14.854;2022-08-16T10:24:25;27.00;94.90
37378;DHT22;23248;48.120;14.854;2022-08-16T10:26:50;27.20;96.10
37378;DHT22;23248;48.120;14.854;2022-08-16T10:29:17;27.40;95.30
37378;DHT22;23248;48.120;14.854;2022-08-16T10:31:43;27.30;94.60
37378;DHT22;23248;48.120;14.854;2022-08-16T10:34:09;27.40;93.70
37378;DHT22;23248;48.120;14.854;2022-08-16T10:36:34;27.30;93.40
37378;DHT22;23248;48.120;14.854;2022-08-16T10:39:00;27.40;93.10
37378;DHT22;23248;48.120;14.854;2022-08-16T10:41:26;27.60;93.50
37378;DHT22;23248;48.120;14.854;2022-08-16T10:43:51;27.60;93.00
37378;DHT22;23248;48.120;14.854;2022-08-16T10:46:17;27.70;93.40
37378;DHT22;23248;48.120;14.854;2022-08-16T10:48:43;27.60;93.00
37378;DHT22;23248;48.120;14.854;2022-08-16T10:51:09;27.50;94.80
37378;DHT22;23248;48.120;14.854;2022-08-16T10:53:35;27.40;93.70
37378;DHT22;23248;48.120;14.854;2022-08-16T10:56:02;27.50;93.30
37378;DHT22;23248;48.120;14.854;2022-08-16T10:58:29;27.70;93.50
37378;DHT22;23248;48.120;14.854;2022-08-16T11:00:54;27.90;93.40
37378;DHT22;23248;48.120;14.854;2022-08-16T11:03:20;28.10;91.00
37378;DHT22;23248;48.120;14.854;2022-08-16T11:05:46;28.10;86.80
37378;DHT22;23248;48.120;14.854;2022-08-16T11:08:11;28.20;89.00
37378;DHT22;23248;48.120;14.854;2022-08-16T11:10:39;28.20;86.40
37378;DHT22;23248;48.120;14.854;2022-08-16T11:13:05;28.20;88.30
37378;DHT22;23248;48.120;14.854;2022-08-16T11:15:32;28.20;86.80
37378;DHT22;23248;48.120;14.854;2022-08-16T11:17:58;28.20;89.10
37378;DHT22;23248;48.120;14.854;2022-08-16T11:20:24;28.20;89.90
37378;DHT22;23248;48.120;14.854;2022-08-16T11:22:49;28.30;86.50
37378;DHT22;23248;48.120;14.854;2022-08-16T11:25:17;28.70;86.90
37378;DHT22;23248;48.120;14.854;2022-08-16T11:27:43;28.70;86.90
37378;DHT22;23248;48.120;14.854;2022-08-16T11:30:09;28.50;86.00
37378;DHT22;23248;48.120;14.854;2022-08-16T11:32:35;28.50;86.70
37378;DHT22;23248;48.120;14.854;2022-08-16T11:35:08;28.50;85.10
37378;DHT22;23248;48.120;14.854;2022-08-16T11:37:35;28.60;85.10
37378;DHT22;23248;48.120;14.854;2022-08-16T11:40:01;28.60;85.10
37378;DHT22;23248;48.120;14.854;2022-08-16T11:42:26;28.80;84.60
37378;DHT22;23248;48.120;14.854;2022-08-16T11:44:52;28.80;84.20
37378;DHT22;23248;48.120;14.854;2022-08-16T11:47:17;29.00;83.30
37378;DHT22;23248;48.120;14.854;2022-08-16T11:49:43;29.20;83.00
37378;DHT22;23248;48.120;14.854;2022-08-16T11:52:09;29.60;83.80
37378;DHT22;23248;48.120;14.854;2022-08-16T11:54:35;30.00;80.90
37378;DHT22;23248;48.120;14.854;2022-08-16T11:57:00;30.30;80.30
37378;DHT22;23248;48.120;14.854;2022-08-16T11:59:26;30.50;77.10
37378;DHT22;23248;48.120;14.854;2022-08-16T12:01:54;30.10;76.60
37378;DHT22;23248;48.120;14.854;2022-08-16T12:04:19;29.70;76.20
37378;DHT22;23248;48.120;14.854;2022-08-16T12:06:46;29.50;78.20
37378;DHT22;23248;48.120;14.854;2022-08-16T12:09:12;29.40;79.50
37378;DHT22;23248;48.120;14.854;2022-08-16T12:11:37;29.60;80.60
37378;DHT22;23248;48.120;14.854;2022-08-16T12:14:03;29.70;77.20
37378;DHT22;23248;48.120;14.854;2022-08-16T12:16:29;30.00;76.10
37378;DHT22;23248;48.120;14.854;2022-08-16T12:18:55;30.30;75.10
37378;DHT22;23248;48.120;14.854;2022-08-16T12:21:20;30.50;75.30
37378;DHT22;23248;48.120;14.854;2022-08-16T12:23:46;30.50;74.70
37378;DHT22;23248;48.120;14.854;2022-08-16T12:26:12;30.50;75.30
37378;DHT22;23248;48.120;14.854;2022-08-16T12:28:37;30.50;76.10
37378;DHT22;23248;48.120;14.854;2022-08-16T12:31:03;30.70;73.70
37378;DHT22;23248;48.120;14.854;2022-08-16T12:33:29;31.00;73.50
37378;DHT22;23248;48.120;14.854;2022-08-16T12:35:55;31.40;73.30
37378;DHT22;23248;48.120;14.854;2022-08-16T12:38:21;31.60;73.60
37378;DHT22;23248;48.120;14.854;2022-08-16T12:40:47;31.30;71.40
37378;DHT22;23248;48.120;14.854;2022-08-16T12:43:13;31.50;73.10
37378;DHT22;23248;48.120;14.854;2022-08-16T12:45:41;31.70;71.00
37378;DHT22;23248;48.120;14.854;2022-08-16T12:48:08;31.90;69.80
37378;DHT22;23248;48.120;14.854;2022-08-16T12:50:52;32.20;70.40
37378;DHT22;23248;48.120;14.854;2022-08-16T12:53:18;32.40;68.60
37378;DHT22;23248;48.120;14.854;2022-08-16T12:55:45;32.20;71.80
37378;DHT22;23248;48.120;14.854;2022-08-16T12:58:11;31.80;68.90
37378;DHT22;23248;48.120;14.854;2022-08-16T13:00:37;31.60;70.40
37378;DHT22;23248;48.120;14.854;2022-08-16T13:03:03;31.60;70.00
37378;DHT22;23248;48.120;14.854;2022-08-16T13:05:29;31.50;69.40
37378;DHT22;23248;48.120;14.854;2022-08-16T13:07:55;31.40;69.70
37378;DHT22;23248;48.120;14.854;2022-08-16T13:10:23;31.30;70.20
37378;DHT22;23248;48.120;14.854;2022-08-16T13:12:50;31.30;69.30
37378;DHT22;23248;48.120;14.854;2022-08-16T13:15:19;31.20;69.60
37378;DHT22;23248;48.120;14.854;2022-08-16T13:17:45;31.50;69.20
37378;DHT22;23248;48.120;14.854;2022-08-16T13:20:12;31.40;68.80
37378;DHT22;23248;48.120;14.854;2022-08-16T13:22:42;30.90;69.10
37378;DHT22;23248;48.120;14.854;2022-08-16T13:25:09;30.80;70.00
37378;DHT22;23248;48.120;14.854;2022-08-16T13:27:35;31.10;69.20
37378;DHT22;23248;48.120;14.854;2022-08-16T13:30:01;31.40;69.20
37378;DHT22;23248;48.120;14.854;2022-08-16T13:32:26;31.60;67.10
37378;DHT22;23248;48.120;14.854;2022-08-16T13:34:52;31.60;68.00
37378;DHT22;23248;48.120;14.854;2022-08-16T13:37:17;31.60;66.20
37378;DHT22;23248;48.120;14.854;2022-08-16T13:39:43;31.70;66.30
37378;DHT22;23248;48.120;14.854;2022-08-16T13:42:09;32.00;66.60
37378;DHT22;23248;48.120;14.854;2022-08-16T13:44:35;32.60;64.80
37378;DHT22;23248;48.120;14.854;2022-08-16T13:47:01;32.80;63.60
37378;DHT22;23248;48.120;14.854;2022-08-16T13:49:27;32.70;65.20
37378;DHT22;23248;48.120;14.854;2022-08-16T13:51:52;32.70;64.40
37378;DHT22;23248;48.120;14.854;2022-08-16T13:54:18;32.60;64.90
37378;DHT22;23248;48.120;14.854;2022-08-16T13:56:43;32.40;64.10
37378;DHT22;23248;48.120;14.854;2022-08-16T13:59:10;32.00;64.10
37378;DHT22;23248;48.120;14.854;2022-08-16T14:01:37;31.50;64.70
37378;DHT22;23248;48.120;14.854;2022-08-16T14:04:03;31.60;65.20
37378;DHT22;23248;48.120;14.854;2022-08-16T14:06:29;31.70;65.60
37378;DHT22;23248;48.120;14.854;2022-08-16T14:08:55;31.90;66.00
37378;DHT22;23248;48.120;14.854;2022-08-16T14:11:21;32.40;65.20
37378;DHT22;23248;48.120;14.854;2022-08-16T14:13:46;32.30;64.90
37378;DHT22;23248;48.120;14.854;2022-08-16T14:16:12;32.10;66.00
37378;DHT22;23248;48.120;14.854;2022-08-16T14:18:38;32.20;65.70
37378;DHT22;23248;48.120;14.854;2022-08-16T14:21:03;32.00;63.40
37378;DHT22;23248;48.120;14.854;2022-08-16T14:23:29;31.90;65.50
37378;DHT22;23248;48.120;14.854;2022-08-16T14:25:54;31.80;64.80
37378;DHT22;23248;48.120;14.854;2022-08-16T14:28:21;32.00;65.70
37378;DHT22;23248;48.120;14.854;2022-08-16T14:30:46;32.30;66.30
37378;DHT22;23248;48.120;14.854;2022-08-16T14:33:12;32.10;64.10
37378;DHT22;23248;48.120;14.854;2022-08-16T14:35:38;32.10;63.90
37378;DHT22;23248;48.120;14.854;2022-08-16T14:38:03;32.10;64.00
37378;DHT22;23248;48.120;14.854;2022-08-16T14:40:29;31.90;63.50
37378;DHT22;23248;48.120;14.854;2022-08-16T14:42:55;32.10;63.40
37378;DHT22;23248;48.120;14.854;2022-08-16T14:45:22;32.20;64.60
37378;DHT22;23248;48.120;14.854;2022-08-16T14:47:48;32.10;63.80
37378;DHT22;23248;48.120;14.854;2022-08-16T14:50:15;32.10;64.20
37378;DHT22;23248;48.120;14.854;2022-08-16T14:52:42;32.10;64.40
37378;DHT22;23248;48.120;14.854;2022-08-16T14:55:08;32.10;64.00
37378;DHT22;23248;48.120;14.854;2022-08-16T14:57:34;31.90;63.60
37378;DHT22;23248;48.120;14.854;2022-08-16T14:59:59;32.20;63.90
37378;DHT22;23248;48.120;14.854;2022-08-16T15:02:26;32.50;62.50
37378;DHT22;23248;48.120;14.854;2022-08-16T15:04:51;32.60;63.30
37378;DHT22;23248;48.120;14.854;2022-08-16T15:07:18;32.40;64.20
37378;DHT22;23248;48.120;14.854;2022-08-16T15:09:44;32.30;62.70
37378;DHT22;23248;48.120;14.854;2022-08-16T15:12:11;32.50;62.40